首页
METAR-TAF:

METAR-TAF

机场 :

图阿马西纳, 马达加斯加

纬度: 18-07S, 经度: 049-24E, 海拔: 5米

当前天气观测

该预报发布于32分钟前的08:00 UTC
风速9节,风向西转西南,在西南西转西北之间变化
温度 25°C
湿度 89%
气压 1018 hPa
能见度10公里或以上
少量云层高于700英尺
多云层高于1700英尺
多云层高于3300英尺
附近有阵雨,

METAR: FMMT 160800Z 25009KT 220V290 9999 VCSH FEW007 BKN017 BKN033 25/23 Q1018 NOSIG

时间: 11:32 (08:32 UTC)

预报

该预报发布于3小时和32分钟前的05:00 UTC
预报有效从16日的 06点(UTC)到 17日的 06点(UTC)
风速13节,风向南转西南
能见度10公里或以上
少量云层高于700英尺
散云层高于1700英尺
多云层高于3300英尺
几率 30% :
短暂存在
从 16日的 06点(UTC)到 17日的 06点(UTC)
能見度: 4000
阵雨,

TAF: FMMT 160500Z 1606/1706 20013KT 9999 FEW007 SCT017 BKN033 PROB30 TEMPO 1606/1706 4000 SHRA

超过4000个机场的气象观测和天气预报(METAR&TAF报告)。

可查询的气象台以黄色和红色小点在地图上表示。

将鼠标移到小点上方,可查看气象台名称。

然后点击查看天气观测和预报。

如需切换地图:点击带黑十字的绿色按钮放大地图;点击带横线的绿色按钮缩小地图;或者点击绿色箭头查看邻近地区的地图。


METAR-TAF: